sensor_id;sensor_type;location;lat;lon;timestamp;P1;durP1;ratioP1;P2;durP2;ratioP2
20743;SDS011;56303;52.160;-0.428;2023-01-24T00:00:37;18.70;;;14.97;;
20743;SDS011;56303;52.160;-0.428;2023-01-24T00:03:04;19.23;;;15.47;;
20743;SDS011;56303;52.160;-0.428;2023-01-24T00:05:34;20.60;;;14.50;;
20743;SDS011;56303;52.160;-0.428;2023-01-24T00:08:01;17.93;;;13.87;;
20743;SDS011;56303;52.160;-0.428;2023-01-24T00:10:27;18.50;;;13.83;;
20743;SDS011;56303;52.160;-0.428;2023-01-24T00:12:55;20.00;;;15.23;;
20743;SDS011;56303;52.160;-0.428;2023-01-24T00:15:22;21.93;;;14.80;;
20743;SDS011;56303;52.160;-0.428;2023-01-24T00:17:49;23.30;;;16.07;;
20743;SDS011;56303;52.160;-0.428;2023-01-24T00:20:16;22.80;;;16.60;;
20743;SDS011;56303;52.160;-0.428;2023-01-24T00:22:42;24.00;;;16.33;;
20743;SDS011;56303;52.160;-0.428;2023-01-24T00:25:11;18.47;;;14.80;;
20743;SDS011;56303;52.160;-0.428;2023-01-24T00:27:38;18.57;;;14.27;;
20743;SDS011;56303;52.160;-0.428;2023-01-24T00:30:05;22.97;;;16.00;;
20743;SDS011;56303;52.160;-0.428;2023-01-24T00:32:32;21.27;;;16.57;;
20743;SDS011;56303;52.160;-0.428;2023-01-24T00:34:59;21.73;;;16.80;;
20743;SDS011;56303;52.160;-0.428;2023-01-24T00:37:26;21.77;;;15.50;;
20743;SDS011;56303;52.160;-0.428;2023-01-24T00:39:53;20.13;;;14.23;;
20743;SDS011;56303;52.160;-0.428;2023-01-24T00:42:19;21.23;;;14.30;;
20743;SDS011;56303;52.160;-0.428;2023-01-24T00:44:46;21.67;;;16.70;;
20743;SDS011;56303;52.160;-0.428;2023-01-24T00:47:13;18.53;;;14.60;;
20743;SDS011;56303;52.160;-0.428;2023-01-24T00:49:40;20.63;;;15.87;;
20743;SDS011;56303;52.160;-0.428;2023-01-24T00:52:07;22.27;;;16.07;;
20743;SDS011;56303;52.160;-0.428;2023-01-24T00:54:34;22.47;;;14.77;;
20743;SDS011;56303;52.160;-0.428;2023-01-24T00:57:01;18.17;;;14.30;;
20743;SDS011;56303;52.160;-0.428;2023-01-24T00:59:28;23.33;;;16.53;;
20743;SDS011;56303;52.160;-0.428;2023-01-24T01:01:54;20.50;;;15.33;;
20743;SDS011;56303;52.160;-0.428;2023-01-24T01:04:21;24.53;;;17.17;;
20743;SDS011;56303;52.160;-0.428;2023-01-24T01:06:48;23.50;;;17.13;;
20743;SDS011;56303;52.160;-0.428;2023-01-24T01:09:15;23.93;;;16.63;;
20743;SDS011;56303;52.160;-0.428;2023-01-24T01:11:42;25.00;;;16.83;;
20743;SDS011;56303;52.160;-0.428;2023-01-24T01:14:09;21.47;;;15.83;;
20743;SDS011;56303;52.160;-0.428;2023-01-24T01:16:35;24.93;;;16.83;;
20743;SDS011;56303;52.160;-0.428;2023-01-24T01:19:05;23.07;;;16.60;;
20743;SDS011;56303;52.160;-0.428;2023-01-24T01:21:32;18.43;;;16.20;;
20743;SDS011;56303;52.160;-0.428;2023-01-24T01:23:59;23.50;;;16.37;;
20743;SDS011;56303;52.160;-0.428;2023-01-24T01:26:26;24.50;;;17.00;;
20743;SDS011;56303;52.160;-0.428;2023-01-24T01:28:53;24.57;;;16.57;;
20743;SDS011;56303;52.160;-0.428;2023-01-24T01:31:20;22.27;;;16.13;;
20743;SDS011;56303;52.160;-0.428;2023-01-24T01:33:47;22.77;;;16.20;;
20743;SDS011;56303;52.160;-0.428;2023-01-24T01:36:14;21.10;;;16.33;;
20743;SDS011;56303;52.160;-0.428;2023-01-24T01:38:40;22.30;;;17.67;;
20743;SDS011;56303;52.160;-0.428;2023-01-24T01:41:07;24.60;;;17.03;;
20743;SDS011;56303;52.160;-0.428;2023-01-24T01:43:34;24.87;;;15.93;;
20743;SDS011;56303;52.160;-0.428;2023-01-24T01:46:23;23.00;;;16.70;;
20743;SDS011;56303;52.160;-0.428;2023-01-24T01:48:51;22.77;;;15.27;;
20743;SDS011;56303;52.160;-0.428;2023-01-24T01:53:53;22.87;;;17.37;;
20743;SDS011;56303;52.160;-0.428;2023-01-24T01:56:29;25.37;;;17.30;;
20743;SDS011;56303;52.160;-0.428;2023-01-24T01:59:09;26.53;;;18.93;;
20743;SDS011;56303;52.160;-0.428;2023-01-24T02:01:42;21.20;;;16.00;;
20743;SDS011;56303;52.160;-0.428;2023-01-24T02:04:16;20.77;;;16.23;;
20743;SDS011;56303;52.160;-0.428;2023-01-24T02:09:50;23.00;;;16.60;;
20743;SDS011;56303;52.160;-0.428;2023-01-24T02:12:21;27.30;;;18.53;;
20743;SDS011;56303;52.160;-0.428;2023-01-24T02:14:50;25.87;;;17.93;;
20743;SDS011;56303;52.160;-0.428;2023-01-24T02:17:38;25.30;;;17.80;;
20743;SDS011;56303;52.160;-0.428;2023-01-24T02:20:21;25.00;;;16.67;;
20743;SDS011;56303;52.160;-0.428;2023-01-24T02:25:45;24.97;;;17.90;;
20743;SDS011;56303;52.160;-0.428;2023-01-24T02:28:25;25.40;;;17.40;;
20743;SDS011;56303;52.160;-0.428;2023-01-24T02:30:55;25.33;;;17.83;;
20743;SDS011;56303;52.160;-0.428;2023-01-24T02:33:23;24.60;;;17.43;;
20743;SDS011;56303;52.160;-0.428;2023-01-24T02:35:51;26.03;;;18.27;;
20743;SDS011;56303;52.160;-0.428;2023-01-24T02:38:40;27.43;;;18.37;;
20743;SDS011;56303;52.160;-0.428;2023-01-24T02:41:09;25.60;;;19.47;;
20743;SDS011;56303;52.160;-0.428;2023-01-24T02:43:39;28.80;;;19.37;;
20743;SDS011;56303;52.160;-0.428;2023-01-24T02:46:10;24.90;;;18.53;;
20743;SDS011;56303;52.160;-0.428;2023-01-24T02:48:37;27.63;;;19.70;;
20743;SDS011;56303;52.160;-0.428;2023-01-24T02:51:04;28.87;;;19.27;;
20743;SDS011;56303;52.160;-0.428;2023-01-24T02:53:50;24.87;;;17.33;;
20743;SDS011;56303;52.160;-0.428;2023-01-24T02:56:17;25.37;;;19.37;;
20743;SDS011;56303;52.160;-0.428;2023-01-24T02:59:02;25.13;;;18.23;;
20743;SDS011;56303;52.160;-0.428;2023-01-24T03:01:29;26.70;;;20.00;;
20743;SDS011;56303;52.160;-0.428;2023-01-24T03:03:57;29.10;;;19.57;;
20743;SDS011;56303;52.160;-0.428;2023-01-24T03:06:24;29.23;;;21.20;;
20743;SDS011;56303;52.160;-0.428;2023-01-24T03:08:51;29.43;;;19.63;;
20743;SDS011;56303;52.160;-0.428;2023-01-24T03:11:18;26.53;;;20.00;;
20743;SDS011;56303;52.160;-0.428;2023-01-24T03:13:46;31.20;;;20.30;;
20743;SDS011;56303;52.160;-0.428;2023-01-24T03:16:31;28.47;;;20.57;;
20743;SDS011;56303;52.160;-0.428;2023-01-24T03:19:16;24.30;;;19.50;;
20743;SDS011;56303;52.160;-0.428;2023-01-24T03:22:02;26.20;;;19.43;;
20743;SDS011;56303;52.160;-0.428;2023-01-24T03:24:47;26.23;;;19.30;;
20743;SDS011;56303;52.160;-0.428;2023-01-24T03:27:33;26.77;;;20.07;;
20743;SDS011;56303;52.160;-0.428;2023-01-24T03:30:18;26.13;;;18.27;;
20743;SDS011;56303;52.160;-0.428;2023-01-24T03:33:03;26.07;;;17.87;;
20743;SDS011;56303;52.160;-0.428;2023-01-24T03:35:49;24.63;;;19.03;;
20743;SDS011;56303;52.160;-0.428;2023-01-24T03:38:24;25.33;;;19.00;;
20743;SDS011;56303;52.160;-0.428;2023-01-24T03:41:09;26.70;;;20.13;;
20743;SDS011;56303;52.160;-0.428;2023-01-24T03:43:36;22.33;;;18.00;;
20743;SDS011;56303;52.160;-0.428;2023-01-24T03:46:03;25.30;;;17.43;;
20743;SDS011;56303;52.160;-0.428;2023-01-24T03:48:30;25.27;;;18.43;;
20743;SDS011;56303;52.160;-0.428;2023-01-24T03:51:03;22.67;;;17.57;;
20743;SDS011;56303;52.160;-0.428;2023-01-24T03:53:49;23.10;;;16.97;;
20743;SDS011;56303;52.160;-0.428;2023-01-24T03:56:16;27.57;;;17.83;;
20743;SDS011;56303;52.160;-0.428;2023-01-24T03:58:43;24.63;;;16.57;;
20743;SDS011;56303;52.160;-0.428;2023-01-24T04:01:10;26.33;;;18.33;;
20743;SDS011;56303;52.160;-0.428;2023-01-24T04:03:37;24.53;;;17.77;;
20743;SDS011;56303;52.160;-0.428;2023-01-24T04:06:04;26.07;;;18.47;;
20743;SDS011;56303;52.160;-0.428;2023-01-24T04:08:30;24.90;;;19.30;;
20743;SDS011;56303;52.160;-0.428;2023-01-24T04:10:57;25.73;;;18.00;;
20743;SDS011;56303;52.160;-0.428;2023-01-24T04:13:24;21.77;;;16.97;;
20743;SDS011;56303;52.160;-0.428;2023-01-24T04:15:51;26.70;;;18.47;;
20743;SDS011;56303;52.160;-0.428;2023-01-24T04:18:18;25.83;;;19.13;;
20743;SDS011;56303;52.160;-0.428;2023-01-24T04:20:44;27.03;;;19.53;;
20743;SDS011;56303;52.160;-0.428;2023-01-24T04:23:11;23.53;;;17.80;;
20743;SDS011;56303;52.160;-0.428;2023-01-24T04:25:38;28.30;;;19.67;;
20743;SDS011;56303;52.160;-0.428;2023-01-24T04:28:08;24.63;;;17.93;;
20743;SDS011;56303;52.160;-0.428;2023-01-24T04:30:34;26.20;;;17.73;;
20743;SDS011;56303;52.160;-0.428;2023-01-24T04:33:01;24.60;;;18.53;;
20743;SDS011;56303;52.160;-0.428;2023-01-24T04:35:28;25.50;;;18.63;;
20743;SDS011;56303;52.160;-0.428;2023-01-24T04:37:59;25.33;;;19.07;;
20743;SDS011;56303;52.160;-0.428;2023-01-24T04:40:27;27.77;;;19.37;;
20743;SDS011;56303;52.160;-0.428;2023-01-24T04:42:56;25.07;;;20.37;;
20743;SDS011;56303;52.160;-0.428;2023-01-24T04:45:24;25.83;;;19.93;;
20743;SDS011;56303;52.160;-0.428;2023-01-24T04:47:52;29.60;;;20.17;;
20743;SDS011;56303;52.160;-0.428;2023-01-24T04:50:20;28.23;;;17.73;;
20743;SDS011;56303;52.160;-0.428;2023-01-24T04:52:47;26.63;;;20.00;;
20743;SDS011;56303;52.160;-0.428;2023-01-24T04:55:13;28.07;;;19.10;;
20743;SDS011;56303;52.160;-0.428;2023-01-24T04:57:40;27.80;;;19.10;;
20743;SDS011;56303;52.160;-0.428;2023-01-24T05:00:07;26.50;;;19.53;;
20743;SDS011;56303;52.160;-0.428;2023-01-24T05:02:35;26.13;;;19.97;;
20743;SDS011;56303;52.160;-0.428;2023-01-24T05:05:06;24.87;;;18.43;;
20743;SDS011;56303;52.160;-0.428;2023-01-24T05:07:33;26.33;;;19.80;;
20743;SDS011;56303;52.160;-0.428;2023-01-24T05:10:00;27.23;;;19.80;;
20743;SDS011;56303;52.160;-0.428;2023-01-24T05:12:27;26.63;;;20.93;;
20743;SDS011;56303;52.160;-0.428;2023-01-24T05:14:54;23.57;;;18.10;;
20743;SDS011;56303;52.160;-0.428;2023-01-24T05:17:20;26.97;;;19.57;;
20743;SDS011;56303;52.160;-0.428;2023-01-24T05:19:47;27.33;;;20.63;;
20743;SDS011;56303;52.160;-0.428;2023-01-24T05:22:14;27.93;;;19.43;;
20743;SDS011;56303;52.160;-0.428;2023-01-24T05:24:41;26.03;;;18.47;;
20743;SDS011;56303;52.160;-0.428;2023-01-24T05:27:08;25.03;;;19.97;;
20743;SDS011;56303;52.160;-0.428;2023-01-24T05:29:35;28.00;;;19.40;;
20743;SDS011;56303;52.160;-0.428;2023-01-24T05:32:01;25.53;;;18.77;;
20743;SDS011;56303;52.160;-0.428;2023-01-24T05:34:28;28.93;;;19.17;;
20743;SDS011;56303;52.160;-0.428;2023-01-24T05:36:55;25.13;;;18.10;;
20743;SDS011;56303;52.160;-0.428;2023-01-24T05:39:22;28.87;;;19.50;;
20743;SDS011;56303;52.160;-0.428;2023-01-24T05:41:49;26.80;;;19.03;;
20743;SDS011;56303;52.160;-0.428;2023-01-24T05:44:16;37.67;;;19.47;;
20743;SDS011;56303;52.160;-0.428;2023-01-24T05:46:43;28.17;;;20.90;;
20743;SDS011;56303;52.160;-0.428;2023-01-24T05:49:10;28.07;;;19.87;;
20743;SDS011;56303;52.160;-0.428;2023-01-24T05:51:37;27.87;;;18.70;;
20743;SDS011;56303;52.160;-0.428;2023-01-24T05:54:04;27.90;;;20.73;;
20743;SDS011;56303;52.160;-0.428;2023-01-24T05:56:31;27.40;;;20.63;;
20743;SDS011;56303;52.160;-0.428;2023-01-24T05:58:58;25.70;;;20.03;;
20743;SDS011;56303;52.160;-0.428;2023-01-24T06:01:27;25.53;;;18.87;;
20743;SDS011;56303;52.160;-0.428;2023-01-24T06:03:54;25.60;;;18.90;;
20743;SDS011;56303;52.160;-0.428;2023-01-24T06:06:21;29.77;;;21.47;;
20743;SDS011;56303;52.160;-0.428;2023-01-24T06:08:50;29.20;;;20.30;;
20743;SDS011;56303;52.160;-0.428;2023-01-24T06:11:18;29.83;;;21.13;;
20743;SDS011;56303;52.160;-0.428;2023-01-24T06:13:47;25.73;;;19.33;;
20743;SDS011;56303;52.160;-0.428;2023-01-24T06:16:24;31.23;;;20.37;;
20743;SDS011;56303;52.160;-0.428;2023-01-24T06:18:54;24.20;;;19.37;;
20743;SDS011;56303;52.160;-0.428;2023-01-24T06:24:26;28.77;;;20.57;;
20743;SDS011;56303;52.160;-0.428;2023-01-24T06:26:53;28.83;;;22.03;;
20743;SDS011;56303;52.160;-0.428;2023-01-24T06:29:21;26.90;;;19.70;;
20743;SDS011;56303;52.160;-0.428;2023-01-24T06:31:59;23.47;;;18.90;;
20743;SDS011;56303;52.160;-0.428;2023-01-24T06:37:36;25.97;;;18.40;;
20743;SDS011;56303;52.160;-0.428;2023-01-24T06:40:16;24.83;;;19.20;;
20743;SDS011;56303;52.160;-0.428;2023-01-24T06:42:44;25.07;;;18.87;;
20743;SDS011;56303;52.160;-0.428;2023-01-24T06:45:12;25.27;;;19.03;;
20743;SDS011;56303;52.160;-0.428;2023-01-24T06:47:39;24.17;;;18.20;;
20743;SDS011;56303;52.160;-0.428;2023-01-24T06:50:06;27.03;;;19.13;;
20743;SDS011;56303;52.160;-0.428;2023-01-24T06:52:38;26.10;;;19.27;;
20743;SDS011;56303;52.160;-0.428;2023-01-24T06:55:05;26.00;;;18.83;;
20743;SDS011;56303;52.160;-0.428;2023-01-24T06:57:32;26.37;;;19.40;;
20743;SDS011;56303;52.160;-0.428;2023-01-24T06:59:59;25.83;;;20.57;;
20743;SDS011;56303;52.160;-0.428;2023-01-24T07:02:26;25.23;;;20.40;;
20743;SDS011;56303;52.160;-0.428;2023-01-24T07:04:53;30.23;;;21.47;;
20743;SDS011;56303;52.160;-0.428;2023-01-24T07:07:19;25.03;;;19.00;;
20743;SDS011;56303;52.160;-0.428;2023-01-24T07:09:46;24.63;;;18.93;;
20743;SDS011;56303;52.160;-0.428;2023-01-24T07:12:13;25.70;;;19.67;;
20743;SDS011;56303;52.160;-0.428;2023-01-24T07:14:41;26.43;;;18.60;;
20743;SDS011;56303;52.160;-0.428;2023-01-24T07:17:09;25.67;;;18.33;;
20743;SDS011;56303;52.160;-0.428;2023-01-24T07:19:37;27.63;;;20.10;;
20743;SDS011;56303;52.160;-0.428;2023-01-24T07:22:04;23.83;;;17.53;;
20743;SDS011;56303;52.160;-0.428;2023-01-24T07:24:31;24.50;;;18.80;;
20743;SDS011;56303;52.160;-0.428;2023-01-24T07:26:58;25.10;;;18.67;;
20743;SDS011;56303;52.160;-0.428;2023-01-24T07:29:25;28.03;;;18.60;;
20743;SDS011;56303;52.160;-0.428;2023-01-24T07:31:52;31.57;;;18.87;;
20743;SDS011;56303;52.160;-0.428;2023-01-24T07:34:19;24.90;;;18.87;;
20743;SDS011;56303;52.160;-0.428;2023-01-24T07:36:47;27.73;;;19.73;;
20743;SDS011;56303;52.160;-0.428;2023-01-24T07:39:14;25.73;;;19.40;;
20743;SDS011;56303;52.160;-0.428;2023-01-24T07:41:42;28.17;;;19.63;;
20743;SDS011;56303;52.160;-0.428;2023-01-24T07:44:10;28.80;;;19.67;;
20743;SDS011;56303;52.160;-0.428;2023-01-24T07:46:37;24.03;;;18.60;;
20743;SDS011;56303;52.160;-0.428;2023-01-24T07:49:04;24.70;;;19.13;;
20743;SDS011;56303;52.160;-0.428;2023-01-24T07:51:31;25.17;;;19.57;;
20743;SDS011;56303;52.160;-0.428;2023-01-24T07:53:58;25.93;;;19.97;;
20743;SDS011;56303;52.160;-0.428;2023-01-24T07:56:25;26.63;;;21.47;;
20743;SDS011;56303;52.160;-0.428;2023-01-24T07:58:52;24.47;;;19.10;;
20743;SDS011;56303;52.160;-0.428;2023-01-24T08:01:22;26.87;;;19.23;;
20743;SDS011;56303;52.160;-0.428;2023-01-24T08:03:54;24.93;;;19.73;;
20743;SDS011;56303;52.160;-0.428;2023-01-24T08:06:22;27.77;;;20.40;;
20743;SDS011;56303;52.160;-0.428;2023-01-24T08:08:50;28.17;;;20.53;;
20743;SDS011;56303;52.160;-0.428;2023-01-24T08:11:19;27.60;;;19.13;;
20743;SDS011;56303;52.160;-0.428;2023-01-24T08:13:46;31.70;;;20.27;;
20743;SDS011;56303;52.160;-0.428;2023-01-24T08:16:13;25.27;;;19.93;;
20743;SDS011;56303;52.160;-0.428;2023-01-24T08:18:40;26.30;;;19.40;;
20743;SDS011;56303;52.160;-0.428;2023-01-24T08:21:07;29.23;;;20.97;;
20743;SDS011;56303;52.160;-0.428;2023-01-24T08:23:34;30.23;;;21.03;;
20743;SDS011;56303;52.160;-0.428;2023-01-24T08:26:02;33.07;;;21.87;;
20743;SDS011;56303;52.160;-0.428;2023-01-24T08:28:32;34.50;;;23.03;;
20743;SDS011;56303;52.160;-0.428;2023-01-24T08:30:59;29.27;;;20.77;;
20743;SDS011;56303;52.160;-0.428;2023-01-24T08:33:27;26.07;;;19.73;;
20743;SDS011;56303;52.160;-0.428;2023-01-24T08:35:54;26.90;;;20.50;;
20743;SDS011;56303;52.160;-0.428;2023-01-24T08:38:21;30.83;;;20.70;;
20743;SDS011;56303;52.160;-0.428;2023-01-24T08:40:49;31.27;;;22.07;;
20743;SDS011;56303;52.160;-0.428;2023-01-24T08:43:16;30.40;;;21.00;;
20743;SDS011;56303;52.160;-0.428;2023-01-24T08:45:43;30.57;;;21.13;;
20743;SDS011;56303;52.160;-0.428;2023-01-24T08:48:12;28.97;;;20.90;;
20743;SDS011;56303;52.160;-0.428;2023-01-24T08:50:39;24.87;;;20.00;;
20743;SDS011;56303;52.160;-0.428;2023-01-24T08:53:09;27.23;;;19.83;;
20743;SDS011;56303;52.160;-0.428;2023-01-24T08:55:36;26.73;;;20.00;;
20743;SDS011;56303;52.160;-0.428;2023-01-24T08:58:03;32.10;;;20.37;;
20743;SDS011;56303;52.160;-0.428;2023-01-24T09:00:30;26.43;;;19.40;;
20743;SDS011;56303;52.160;-0.428;2023-01-24T09:03:01;25.97;;;21.13;;
20743;SDS011;56303;52.160;-0.428;2023-01-24T09:05:29;32.83;;;22.53;;
20743;SDS011;56303;52.160;-0.428;2023-01-24T09:07:57;29.30;;;22.40;;
20743;SDS011;56303;52.160;-0.428;2023-01-24T09:10:25;32.27;;;23.60;;
20743;SDS011;56303;52.160;-0.428;2023-01-24T09:12:52;30.10;;;22.73;;
20743;SDS011;56303;52.160;-0.428;2023-01-24T09:15:19;37.37;;;24.03;;
20743;SDS011;56303;52.160;-0.428;2023-01-24T09:17:46;26.70;;;21.77;;
20743;SDS011;56303;52.160;-0.428;2023-01-24T09:20:13;34.60;;;24.07;;
20743;SDS011;56303;52.160;-0.428;2023-01-24T09:22:40;27.73;;;23.07;;
20743;SDS011;56303;52.160;-0.428;2023-01-24T09:25:07;28.37;;;22.53;;
20743;SDS011;56303;52.160;-0.428;2023-01-24T09:27:35;27.07;;;22.53;;
20743;SDS011;56303;52.160;-0.428;2023-01-24T09:30:02;30.80;;;24.10;;
20743;SDS011;56303;52.160;-0.428;2023-01-24T09:32:34;32.67;;;23.17;;
20743;SDS011;56303;52.160;-0.428;2023-01-24T09:35:01;31.23;;;24.90;;
20743;SDS011;56303;52.160;-0.428;2023-01-24T09:37:28;31.40;;;25.77;;
20743;SDS011;56303;52.160;-0.428;2023-01-24T09:39:55;31.47;;;24.17;;
20743;SDS011;56303;52.160;-0.428;2023-01-24T09:45:45;29.20;;;22.63;;
20743;SDS011;56303;52.160;-0.428;2023-01-24T09:48:19;32.03;;;24.47;;
20743;SDS011;56303;52.160;-0.428;2023-01-24T09:50:50;29.40;;;23.73;;
20743;SDS011;56303;52.160;-0.428;2023-01-24T09:53:21;33.37;;;24.73;;
20743;SDS011;56303;52.160;-0.428;2023-01-24T09:55:52;30.80;;;22.73;;
20743;SDS011;56303;52.160;-0.428;2023-01-24T09:58:30;34.33;;;25.07;;
20743;SDS011;56303;52.160;-0.428;2023-01-24T10:01:04;31.50;;;25.23;;
20743;SDS011;56303;52.160;-0.428;2023-01-24T10:03:35;29.47;;;25.80;;
20743;SDS011;56303;52.160;-0.428;2023-01-24T10:06:07;32.37;;;24.77;;
20743;SDS011;56303;52.160;-0.428;2023-01-24T10:08:54;32.63;;;23.67;;
20743;SDS011;56303;52.160;-0.428;2023-01-24T10:14:36;32.57;;;25.03;;
20743;SDS011;56303;52.160;-0.428;2023-01-24T10:25:38;31.07;;;25.93;;
20743;SDS011;56303;52.160;-0.428;2023-01-24T10:28:35;32.67;;;25.70;;
20743;SDS011;56303;52.160;-0.428;2023-01-24T10:31:09;35.23;;;26.57;;
20743;SDS011;56303;52.160;-0.428;2023-01-24T10:33:47;32.77;;;27.47;;
20743;SDS011;56303;52.160;-0.428;2023-01-24T10:36:22;31.53;;;26.87;;
20743;SDS011;56303;52.160;-0.428;2023-01-24T10:39:09;31.60;;;27.80;;
20743;SDS011;56303;52.160;-0.428;2023-01-24T10:41:37;33.47;;;27.57;;
20743;SDS011;56303;52.160;-0.428;2023-01-24T10:49:51;33.40;;;27.60;;
20743;SDS011;56303;52.160;-0.428;2023-01-24T10:52:27;33.17;;;26.50;;
20743;SDS011;56303;52.160;-0.428;2023-01-24T10:54:55;33.17;;;27.10;;
20743;SDS011;56303;52.160;-0.428;2023-01-24T11:00:18;29.80;;;26.07;;
20743;SDS011;56303;52.160;-0.428;2023-01-24T11:02:46;34.27;;;26.43;;
20743;SDS011;56303;52.160;-0.428;2023-01-24T11:05:17;31.47;;;27.23;;
20743;SDS011;56303;52.160;-0.428;2023-01-24T11:07:50;33.87;;;27.57;;
20743;SDS011;56303;52.160;-0.428;2023-01-24T11:10:26;31.37;;;25.27;;
20743;SDS011;56303;52.160;-0.428;2023-01-24T11:16:18;30.57;;;26.17;;
20743;SDS011;56303;52.160;-0.428;2023-01-24T11:21:19;32.27;;;26.23;;
20743;SDS011;56303;52.160;-0.428;2023-01-24T11:23:58;30.87;;;25.23;;
20743;SDS011;56303;52.160;-0.428;2023-01-24T11:26:53;34.13;;;26.37;;
20743;SDS011;56303;52.160;-0.428;2023-01-24T11:29:27;34.43;;;28.47;;
20743;SDS011;56303;52.160;-0.428;2023-01-24T11:31:55;31.70;;;27.07;;
20743;SDS011;56303;52.160;-0.428;2023-01-24T11:37:18;30.93;;;25.97;;
20743;SDS011;56303;52.160;-0.428;2023-01-24T11:39:55;28.87;;;24.63;;
20743;SDS011;56303;52.160;-0.428;2023-01-24T11:42:39;30.97;;;25.30;;
20743;SDS011;56303;52.160;-0.428;2023-01-24T11:48:30;28.37;;;23.90;;
20743;SDS011;56303;52.160;-0.428;2023-01-24T12:08:04;24.83;;;21.00;;
20743;SDS011;56303;52.160;-0.428;2023-01-24T12:22:56;21.97;;;19.27;;
20743;SDS011;56303;52.160;-0.428;2023-01-24T12:25:34;24.70;;;21.23;;
20743;SDS011;56303;52.160;-0.428;2023-01-24T12:28:06;23.73;;;20.70;;
20743;SDS011;56303;52.160;-0.428;2023-01-24T12:30:41;22.37;;;20.20;;
20743;SDS011;56303;52.160;-0.428;2023-01-24T12:36:00;22.40;;;18.13;;
20743;SDS011;56303;52.160;-0.428;2023-01-24T12:46:33;22.90;;;20.57;;
20743;SDS011;56303;52.160;-0.428;2023-01-24T12:52:09;24.80;;;22.30;;
20743;SDS011;56303;52.160;-0.428;2023-01-24T12:54:52;25.00;;;22.53;;
20743;SDS011;56303;52.160;-0.428;2023-01-24T12:57:36;22.67;;;20.23;;
20743;SDS011;56303;52.160;-0.428;2023-01-24T13:00:26;20.47;;;18.27;;
20743;SDS011;56303;52.160;-0.428;2023-01-24T13:11:18;19.37;;;16.57;;
20743;SDS011;56303;52.160;-0.428;2023-01-24T13:14:09;18.50;;;16.53;;
20743;SDS011;56303;52.160;-0.428;2023-01-24T13:30:15;11.83;;;10.50;;
20743;SDS011;56303;52.160;-0.428;2023-01-24T13:32:59;13.07;;;11.77;;
20743;SDS011;56303;52.160;-0.428;2023-01-24T13:35:28;15.13;;;12.87;;
20743;SDS011;56303;52.160;-0.428;2023-01-24T13:38:02;15.90;;;13.03;;
20743;SDS011;56303;52.160;-0.428;2023-01-24T13:40:34;13.33;;;11.80;;
20743;SDS011;56303;52.160;-0.428;2023-01-24T13:46:10;16.77;;;13.23;;
20743;SDS011;56303;52.160;-0.428;2023-01-24T13:56:28;12.00;;;10.80;;
20743;SDS011;56303;52.160;-0.428;2023-01-24T13:58:55;14.00;;;9.53;;
20743;SDS011;56303;52.160;-0.428;2023-01-24T14:01:23;13.07;;;9.13;;
20743;SDS011;56303;52.160;-0.428;2023-01-24T14:03:56;10.17;;;8.03;;
20743;SDS011;56303;52.160;-0.428;2023-01-24T14:06:25;11.97;;;10.77;;
20743;SDS011;56303;52.160;-0.428;2023-01-24T14:09:22;14.13;;;11.67;;
20743;SDS011;56303;52.160;-0.428;2023-01-24T14:11:55;11.13;;;9.30;;
20743;SDS011;56303;52.160;-0.428;2023-01-24T14:14:31;12.93;;;10.63;;
20743;SDS011;56303;52.160;-0.428;2023-01-24T14:17:04;11.10;;;9.83;;
20743;SDS011;56303;52.160;-0.428;2023-01-24T14:19:51;10.57;;;9.37;;
20743;SDS011;56303;52.160;-0.428;2023-01-24T14:22:21;10.43;;;8.73;;
20743;SDS011;56303;52.160;-0.428;2023-01-24T14:24:56;10.07;;;8.27;;
20743;SDS011;56303;52.160;-0.428;2023-01-24T14:27:36;9.37;;;7.57;;
20743;SDS011;56303;52.160;-0.428;2023-01-24T14:30:17;12.93;;;11.10;;
20743;SDS011;56303;52.160;-0.428;2023-01-24T14:33:00;9.43;;;8.53;;
20743;SDS011;56303;52.160;-0.428;2023-01-24T14:35:33;11.30;;;9.30;;
20743;SDS011;56303;52.160;-0.428;2023-01-24T14:38:15;10.27;;;8.77;;
20743;SDS011;56303;52.160;-0.428;2023-01-24T14:40:52;10.00;;;8.13;;
20743;SDS011;56303;52.160;-0.428;2023-01-24T14:43:20;8.87;;;7.97;;
20743;SDS011;56303;52.160;-0.428;2023-01-24T14:45:51;8.03;;;6.90;;
20743;SDS011;56303;52.160;-0.428;2023-01-24T14:48:22;10.20;;;9.07;;
20743;SDS011;56303;52.160;-0.428;2023-01-24T14:51:04;9.60;;;8.60;;
20743;SDS011;56303;52.160;-0.428;2023-01-24T14:53:33;8.30;;;7.37;;
20743;SDS011;56303;52.160;-0.428;2023-01-24T14:56:01;9.83;;;8.83;;
20743;SDS011;56303;52.160;-0.428;2023-01-24T14:58:39;9.40;;;7.73;;
20743;SDS011;56303;52.160;-0.428;2023-01-24T15:01:23;10.03;;;8.87;;
20743;SDS011;56303;52.160;-0.428;2023-01-24T15:03:57;10.13;;;8.23;;
20743;SDS011;56303;52.160;-0.428;2023-01-24T15:06:25;9.47;;;7.57;;
20743;SDS011;56303;52.160;-0.428;2023-01-24T15:08:57;10.37;;;9.00;;
20743;SDS011;56303;52.160;-0.428;2023-01-24T15:11:32;10.40;;;8.93;;
20743;SDS011;56303;52.160;-0.428;2023-01-24T15:14:03;11.03;;;9.77;;
20743;SDS011;56303;52.160;-0.428;2023-01-24T15:16:37;10.80;;;9.57;;
20743;SDS011;56303;52.160;-0.428;2023-01-24T15:19:19;11.87;;;9.93;;
20743;SDS011;56303;52.160;-0.428;2023-01-24T15:21:51;12.87;;;10.03;;
20743;SDS011;56303;52.160;-0.428;2023-01-24T15:24:26;10.93;;;9.77;;
20743;SDS011;56303;52.160;-0.428;2023-01-24T15:26:58;11.87;;;10.60;;
20743;SDS011;56303;52.160;-0.428;2023-01-24T15:31:58;13.57;;;11.83;;
20743;SDS011;56303;52.160;-0.428;2023-01-24T15:40:48;12.00;;;10.67;;
20743;SDS011;56303;52.160;-0.428;2023-01-24T15:43:27;12.80;;;10.63;;
20743;SDS011;56303;52.160;-0.428;2023-01-24T15:49:01;15.40;;;11.33;;
20743;SDS011;56303;52.160;-0.428;2023-01-24T15:51:34;15.23;;;11.70;;
20743;SDS011;56303;52.160;-0.428;2023-01-24T15:54:18;12.93;;;11.60;;
20743;SDS011;56303;52.160;-0.428;2023-01-24T15:57:08;13.37;;;11.93;;
20743;SDS011;56303;52.160;-0.428;2023-01-24T15:59:46;13.77;;;11.87;;
20743;SDS011;56303;52.160;-0.428;2023-01-24T16:02:16;14.03;;;12.17;;
20743;SDS011;56303;52.160;-0.428;2023-01-24T16:04:43;16.60;;;13.13;;
20743;SDS011;56303;52.160;-0.428;2023-01-24T16:07:11;14.13;;;12.03;;
20743;SDS011;56303;52.160;-0.428;2023-01-24T16:09:38;14.53;;;12.43;;
20743;SDS011;56303;52.160;-0.428;2023-01-24T16:12:05;14.20;;;11.93;;
20743;SDS011;56303;52.160;-0.428;2023-01-24T16:14:38;15.90;;;13.00;;
20743;SDS011;56303;52.160;-0.428;2023-01-24T16:17:08;16.97;;;14.07;;
20743;SDS011;56303;52.160;-0.428;2023-01-24T16:19:36;16.93;;;14.60;;
20743;SDS011;56303;52.160;-0.428;2023-01-24T16:22:03;16.67;;;14.33;;
20743;SDS011;56303;52.160;-0.428;2023-01-24T16:24:30;16.37;;;14.37;;
20743;SDS011;56303;52.160;-0.428;2023-01-24T16:26:57;19.00;;;15.73;;
20743;SDS011;56303;52.160;-0.428;2023-01-24T16:29:24;20.33;;;16.53;;
20743;SDS011;56303;52.160;-0.428;2023-01-24T16:31:54;17.97;;;15.20;;
20743;SDS011;56303;52.160;-0.428;2023-01-24T16:34:21;19.20;;;15.80;;
20743;SDS011;56303;52.160;-0.428;2023-01-24T16:36:48;21.27;;;17.13;;
20743;SDS011;56303;52.160;-0.428;2023-01-24T16:39:16;25.23;;;17.37;;
20743;SDS011;56303;52.160;-0.428;2023-01-24T16:41:45;22.57;;;18.77;;
20743;SDS011;56303;52.160;-0.428;2023-01-24T16:44:13;23.83;;;20.50;;
20743;SDS011;56303;52.160;-0.428;2023-01-24T16:46:46;25.27;;;19.43;;
20743;SDS011;56303;52.160;-0.428;2023-01-24T16:49:15;23.13;;;19.07;;